Terminal Aerodrome Forecast
Issued by NWS Mt. Holly, NJ

Home | Current Version | Previous Version | Text Only | Print | Product List | Glossary On
Versions: 1 2 3 4 5 6 7 8 9 10 11 12 13 14
000
FTUS41 KPHI 262330
TAFILG
TAF
KILG 262330Z 2700/2724 19006KT P6SM SCT100
     FM270800 19006KT P6SM SCT010 BKN100
      TEMPO 2710/2714 4SM BR BKN010
     FM271500 19010G18KT P6SM SCT045=

USA.gov is the U.S. government's official web portal to all federal, state and local government web resources and services.